createdAt,value
2023-03-02T00:02:22.766Z,101177.00
2023-03-02T00:04:59.844Z,101172.00
2023-03-02T00:07:37.225Z,101166.00
2023-03-02T00:10:13.107Z,101162.00
2023-03-02T00:12:46.801Z,101164.00
2023-03-02T00:15:21.887Z,101168.00
2023-03-02T00:17:55.547Z,101166.00
2023-03-02T00:20:29.067Z,101157.00
2023-03-02T00:23:02.721Z,101154.00
2023-03-02T00:25:38.141Z,101158.00
2023-03-02T00:28:12.125Z,101152.00
2023-03-02T00:30:47.634Z,101151.00
2023-03-02T00:33:22.256Z,101146.00
2023-03-02T00:35:56.335Z,101145.00
2023-03-02T00:38:30.359Z,101116.00
2023-03-02T00:41:04.037Z,101138.00
2023-03-02T00:43:38.976Z,101143.00
2023-03-02T00:46:17.378Z,101138.00
2023-03-02T00:48:51.754Z,101131.00
2023-03-02T00:51:25.569Z,101138.00
2023-03-02T00:54:03.390Z,101140.00
2023-03-02T00:56:37.356Z,101143.00
2023-03-02T00:59:26.334Z,101143.00
2023-03-02T01:02:03.278Z,101141.00
2023-03-02T01:04:40.242Z,101136.00
2023-03-02T01:07:17.685Z,101131.00
2023-03-02T01:09:51.415Z,101133.00
2023-03-02T01:12:25.348Z,101131.00
2023-03-02T01:14:59.215Z,101138.00
2023-03-02T01:17:34.434Z,101124.00
2023-03-02T01:20:11.429Z,101132.00
2023-03-02T01:22:45.563Z,101121.00
2023-03-02T01:25:19.419Z,101125.00
2023-03-02T01:27:53.013Z,101126.00
2023-03-02T01:30:27.054Z,101121.00
2023-03-02T01:33:02.414Z,101132.00
2023-03-02T01:35:35.994Z,101123.00
2023-03-02T01:38:09.692Z,101121.00
2023-03-02T01:40:43.662Z,101126.00
2023-03-02T01:43:18.520Z,101105.00
2023-03-02T01:45:57.947Z,101104.00
2023-03-02T01:48:40.460Z,101118.00
2023-03-02T01:51:18.788Z,101121.00
2023-03-02T01:54:02.314Z,101107.00
2023-03-02T01:56:41.738Z,101113.00
2023-03-02T01:59:20.661Z,101088.00
2023-03-02T02:01:58.255Z,101105.00
2023-03-02T02:04:37.898Z,101079.00
2023-03-02T02:07:12.310Z,101099.00
2023-03-02T02:09:50.263Z,101102.00
2023-03-02T02:12:25.665Z,101092.00
2023-03-02T02:15:00.895Z,101093.00
2023-03-02T02:17:34.431Z,101090.00
2023-03-02T02:20:24.071Z,101090.00
2023-03-02T02:23:17.260Z,101091.00
2023-03-02T02:26:22.213Z,101081.00
2023-03-02T02:29:02.055Z,101085.00
2023-03-02T02:31:42.260Z,101080.00
2023-03-02T02:34:23.028Z,101039.00
2023-03-02T02:37:02.297Z,101073.00
2023-03-02T02:39:42.268Z,101074.00
2023-03-02T02:42:22.846Z,101061.00
2023-03-02T02:45:02.249Z,101055.00
2023-03-02T02:47:36.580Z,101055.00
2023-03-02T02:50:22.118Z,101057.00
2023-03-02T02:53:02.474Z,101051.00
2023-03-02T02:55:37.487Z,101066.00
2023-03-02T02:58:28.734Z,101060.00
2023-03-02T03:01:04.174Z,101069.00
2023-03-02T03:03:40.744Z,101066.00
2023-03-02T03:06:21.008Z,101071.00
2023-03-02T03:09:00.303Z,101071.00
2023-03-02T03:11:39.476Z,101073.00
2023-03-02T03:14:18.498Z,101074.00
2023-03-02T03:16:53.918Z,101063.00
2023-03-02T03:19:31.328Z,101063.00
2023-03-02T03:22:05.262Z,101070.00
2023-03-02T03:24:39.991Z,101043.00
2023-03-02T03:27:17.340Z,101063.00
2023-03-02T03:29:52.650Z,101060.00
2023-03-02T03:32:26.670Z,101054.00
2023-03-02T03:35:00.705Z,101060.00
2023-03-02T03:37:34.656Z,101062.00
2023-03-02T03:40:11.491Z,101067.00
2023-03-02T03:42:45.165Z,101054.00
2023-03-02T03:45:20.858Z,101058.00
2023-03-02T03:47:54.810Z,101062.00
2023-03-02T03:50:28.824Z,101072.00
2023-03-02T03:53:03.907Z,101069.00
2023-03-02T03:55:37.951Z,101066.00
2023-03-02T03:58:12.059Z,101067.00
2023-03-02T04:00:48.081Z,101052.00
2023-03-02T04:03:23.450Z,101050.00
2023-03-02T04:05:57.397Z,101059.00
2023-03-02T04:08:31.442Z,101065.00
2023-03-02T04:11:05.585Z,101067.00
2023-03-02T04:13:39.187Z,101058.00
2023-03-02T04:16:16.034Z,101066.00
2023-03-02T04:18:50.181Z,101064.00
2023-03-02T04:21:24.772Z,101066.00
2023-03-02T04:24:00.118Z,101055.00
2023-03-02T04:26:34.884Z,101059.00
2023-03-02T04:29:09.439Z,101054.00
2023-03-02T04:31:44.832Z,101065.00
2023-03-02T04:34:19.041Z,101059.00
2023-03-02T04:36:53.178Z,101055.00
2023-03-02T04:39:27.442Z,101053.00
2023-03-02T04:42:01.090Z,101057.00
2023-03-02T04:44:34.719Z,101055.00
2023-03-02T04:47:11.124Z,101060.00
2023-03-02T04:49:44.979Z,101063.00
2023-03-02T04:52:18.598Z,101067.00
2023-03-02T04:54:52.211Z,101065.00
2023-03-02T04:57:26.303Z,101051.00
2023-03-02T05:00:00.119Z,101054.00
2023-03-02T05:02:35.253Z,101055.00
2023-03-02T05:05:14.526Z,101049.00
2023-03-02T05:07:49.634Z,101057.00
2023-03-02T05:10:24.602Z,101057.00
2023-03-02T05:13:02.409Z,101055.00
2023-03-02T05:15:40.487Z,101060.00
2023-03-02T05:18:15.654Z,101063.00
2023-03-02T05:20:50.461Z,101048.00
2023-03-02T05:23:31.655Z,101047.00
2023-03-02T05:26:05.585Z,101035.00
2023-03-02T05:28:39.830Z,101038.00
2023-03-02T05:31:21.698Z,101031.00
2023-03-02T05:33:56.669Z,101036.00
2023-03-02T05:36:32.208Z,101050.00
2023-03-02T05:39:08.412Z,101055.00
2023-03-02T05:41:43.161Z,101053.00
2023-03-02T05:44:17.003Z,101052.00
2023-03-02T05:46:51.145Z,101053.00
2023-03-02T05:49:26.178Z,101050.00
2023-03-02T05:52:00.028Z,101055.00
2023-03-02T05:54:34.248Z,101059.00
2023-03-02T05:57:08.261Z,101048.00
2023-03-02T05:59:42.274Z,101046.00
2023-03-02T06:02:16.220Z,101041.00
2023-03-02T06:04:51.616Z,101042.00
2023-03-02T06:07:26.618Z,101051.00
2023-03-02T06:10:01.333Z,101050.00
2023-03-02T06:12:36.098Z,101041.00
2023-03-02T06:15:12.639Z,101050.00
2023-03-02T06:17:47.910Z,101042.00
2023-03-02T06:20:23.282Z,101040.00
2023-03-02T06:22:57.257Z,101056.00
2023-03-02T06:25:31.861Z,101053.00
2023-03-02T06:28:06.406Z,101056.00
2023-03-02T06:30:42.258Z,101056.00
2023-03-02T06:33:17.148Z,101053.00
2023-03-02T06:35:55.232Z,101056.00
2023-03-02T06:38:28.667Z,101061.00
2023-03-02T06:41:02.465Z,101062.00
2023-03-02T06:43:36.261Z,101065.00
2023-03-02T06:46:10.527Z,101059.00
2023-03-02T06:48:46.492Z,101068.00
2023-03-02T06:51:21.849Z,101063.00
2023-03-02T06:53:55.681Z,101065.00
2023-03-02T06:56:29.694Z,101077.00
2023-03-02T06:59:03.473Z,101070.00
2023-03-02T07:01:37.373Z,101072.00
2023-03-02T07:04:11.345Z,101069.00
2023-03-02T07:06:46.350Z,101063.00
2023-03-02T07:09:20.102Z,101065.00
2023-03-02T07:11:56.115Z,101068.00
2023-03-02T07:14:30.133Z,101053.00
2023-03-02T07:17:09.313Z,101063.00
2023-03-02T07:19:43.263Z,101065.00
2023-03-02T07:22:19.053Z,101059.00
2023-03-02T07:24:54.493Z,101069.00
2023-03-02T07:27:28.386Z,101064.00
2023-03-02T07:30:03.111Z,101061.00
2023-03-02T07:32:37.071Z,101062.00
2023-03-02T07:35:12.098Z,101072.00
2023-03-02T07:37:47.986Z,101072.00
2023-03-02T07:40:21.527Z,101083.00
2023-03-02T07:42:55.559Z,101079.00
2023-03-02T07:45:30.356Z,101077.00
2023-03-02T07:48:04.684Z,101078.00
2023-03-02T07:50:38.669Z,101078.00
2023-03-02T07:53:13.876Z,101089.00
2023-03-02T07:55:47.464Z,101081.00
2023-03-02T07:58:21.442Z,101092.00
2023-03-02T08:00:55.823Z,101083.00
2023-03-02T08:03:29.666Z,101089.00
2023-03-02T08:06:07.824Z,101089.00
2023-03-02T08:08:43.305Z,101086.00
2023-03-02T08:11:20.093Z,101085.00
2023-03-02T08:13:53.689Z,101081.00
2023-03-02T08:16:27.576Z,101089.00
2023-03-02T08:19:01.778Z,101090.00
2023-03-02T08:21:35.416Z,101086.00
2023-03-02T08:24:11.751Z,101095.00
2023-03-02T08:26:45.404Z,101088.00
2023-03-02T08:29:19.050Z,101074.00
2023-03-02T08:31:53.054Z,101087.00
2023-03-02T08:34:27.116Z,101079.00
2023-03-02T08:37:00.960Z,101085.00
2023-03-02T08:39:35.998Z,101084.00
2023-03-02T08:42:10.333Z,101070.00
2023-03-02T08:44:44.246Z,101076.00
2023-03-02T08:47:17.667Z,101077.00
2023-03-02T08:49:51.251Z,101075.00
2023-03-02T08:52:25.116Z,101077.00
2023-03-02T08:55:01.633Z,101070.00
2023-03-02T08:57:37.061Z,101076.00
2023-03-02T09:00:15.162Z,101073.00
2023-03-02T09:02:50.095Z,101077.00
2023-03-02T09:05:23.684Z,101070.00
2023-03-02T09:07:57.423Z,101075.00
2023-03-02T09:10:32.485Z,101080.00
2023-03-02T09:13:08.528Z,101075.00
2023-03-02T09:15:42.705Z,101067.00
2023-03-02T09:18:16.707Z,101072.00
2023-03-02T09:20:52.258Z,101076.00
2023-03-02T09:23:27.778Z,101082.00
2023-03-02T09:26:02.901Z,101071.00
2023-03-02T09:28:37.946Z,101071.00
2023-03-02T09:31:13.517Z,101068.00
2023-03-02T09:33:47.859Z,101068.00
2023-03-02T09:36:24.497Z,101057.00
2023-03-02T09:38:58.009Z,101067.00
2023-03-02T09:42:19.881Z,101067.00
2023-03-02T09:45:37.874Z,101060.00
2023-03-02T09:48:26.762Z,101063.00
2023-03-02T09:51:21.988Z,101063.00
2023-03-02T09:54:05.452Z,101056.00
2023-03-02T09:56:46.177Z,101062.00
2023-03-02T09:59:28.964Z,101057.00
2023-03-02T10:02:19.997Z,101054.00
2023-03-02T10:04:58.672Z,101056.00
2023-03-02T10:07:35.184Z,101055.00
2023-03-02T10:10:30.665Z,101067.00
2023-03-02T10:13:26.326Z,101058.00
2023-03-02T10:16:17.693Z,101060.00
2023-03-02T10:18:59.729Z,101068.00
2023-03-02T10:21:40.979Z,101064.00
2023-03-02T10:24:28.659Z,101060.00
2023-03-02T10:27:18.206Z,101066.00
2023-03-02T10:30:02.520Z,101063.00
2023-03-02T10:32:44.963Z,101056.00
2023-03-02T10:35:23.057Z,101037.00
2023-03-02T10:38:03.566Z,101062.00
2023-03-02T10:40:44.077Z,101058.00
2023-03-02T10:43:27.178Z,101043.00
2023-03-02T10:46:05.211Z,101068.00
2023-03-02T10:48:50.217Z,101059.00
2023-03-02T10:51:29.639Z,101057.00
2023-03-02T10:54:08.804Z,101057.00
2023-03-02T10:56:45.829Z,101057.00
2023-03-02T10:59:44.016Z,101054.00
2023-03-02T11:02:23.890Z,101051.00
2023-03-02T11:05:01.121Z,101050.00
2023-03-02T11:07:35.741Z,101050.00
2023-03-02T11:10:21.728Z,101055.00
2023-03-02T11:12:56.222Z,101048.00
2023-03-02T11:15:41.012Z,101052.00
2023-03-02T11:18:27.588Z,101043.00
2023-03-02T11:21:06.627Z,101053.00
2023-03-02T11:23:57.335Z,101051.00
2023-03-02T11:26:39.063Z,101050.00
2023-03-02T11:29:28.908Z,101066.00
2023-03-02T11:32:14.853Z,101050.00
2023-03-02T11:34:56.371Z,101042.00
2023-03-02T11:37:39.880Z,101051.00
2023-03-02T11:40:26.694Z,101049.00
2023-03-02T11:43:05.190Z,101045.00
2023-03-02T11:45:48.898Z,101036.00
2023-03-02T11:48:30.077Z,101034.00
2023-03-02T11:51:13.032Z,101036.00
2023-03-02T11:53:55.590Z,101030.00
2023-03-02T11:56:34.195Z,101037.00
2023-03-02T11:59:26.527Z,101027.00
2023-03-02T12:02:05.205Z,101019.00
2023-03-02T12:04:40.755Z,101023.00
2023-03-02T12:07:27.561Z,101016.00
2023-03-02T12:10:07.513Z,101012.00
2023-03-02T12:12:48.482Z,101024.00
2023-03-02T12:15:48.184Z,101012.00
2023-03-02T12:18:49.058Z,101017.00
2023-03-02T12:21:25.017Z,101015.00
2023-03-02T12:24:04.373Z,101010.00
2023-03-02T12:26:39.692Z,101013.00
2023-03-02T12:29:26.386Z,101005.00
2023-03-02T12:32:10.837Z,100998.00
2023-03-02T12:34:53.323Z,101000.00
2023-03-02T12:37:32.012Z,101008.00
2023-03-02T12:40:34.514Z,101002.00
2023-03-02T12:43:28.891Z,100998.00
2023-03-02T12:46:32.472Z,101009.00
2023-03-02T12:49:35.832Z,100991.00
2023-03-02T12:52:30.252Z,100988.00
2023-03-02T12:55:08.683Z,100983.00
2023-03-02T12:57:52.428Z,100984.00
2023-03-02T13:00:31.347Z,100981.00
2023-03-02T13:03:07.330Z,100970.00
2023-03-02T13:05:42.568Z,100967.00
2023-03-02T13:08:24.529Z,100960.00
2023-03-02T13:11:02.916Z,100958.00
2023-03-02T13:13:42.851Z,100958.00
2023-03-02T13:16:24.122Z,100951.00
2023-03-02T13:19:01.956Z,100949.00
2023-03-02T13:21:39.079Z,100950.00
2023-03-02T13:24:32.940Z,100950.00
2023-03-02T13:27:09.358Z,100948.00
2023-03-02T13:29:45.924Z,100948.00
2023-03-02T13:32:23.413Z,100940.00
2023-03-02T13:35:02.546Z,100930.00
2023-03-02T13:37:40.946Z,100936.00
2023-03-02T13:40:40.926Z,100944.00
2023-03-02T13:43:37.326Z,100941.00
2023-03-02T13:46:30.766Z,100935.00
2023-03-02T13:49:11.445Z,100939.00
2023-03-02T13:51:48.539Z,100933.00
2023-03-02T13:54:27.393Z,100937.00
2023-03-02T13:57:05.078Z,100940.00
2023-03-02T13:59:38.914Z,100932.00
2023-03-02T14:02:25.734Z,100922.00
2023-03-02T14:04:59.696Z,100918.00
2023-03-02T14:07:33.269Z,100910.00
2023-03-02T14:10:09.185Z,100914.00
2023-03-02T14:12:49.285Z,100919.00
2023-03-02T14:15:23.207Z,100914.00
2023-03-02T14:17:58.325Z,100905.00
2023-03-02T14:20:32.219Z,100898.00
2023-03-02T14:23:07.636Z,100901.00
2023-03-02T14:25:41.615Z,100895.00
2023-03-02T14:28:23.796Z,100901.00
2023-03-02T14:30:59.705Z,100901.00
2023-03-02T14:33:36.552Z,100903.00
2023-03-02T14:36:17.662Z,100897.00
2023-03-02T14:38:51.332Z,100896.00
2023-03-02T14:41:26.622Z,100899.00
2023-03-02T14:44:00.514Z,100888.00
2023-03-02T14:46:34.468Z,100900.00
2023-03-02T14:49:10.483Z,100887.00
2023-03-02T14:51:50.296Z,100891.00
2023-03-02T14:54:25.904Z,100891.00
2023-03-02T14:56:59.242Z,100889.00
2023-03-02T14:59:33.035Z,100889.00
2023-03-02T15:02:19.156Z,100883.00
2023-03-02T15:05:00.148Z,100886.00
2023-03-02T15:07:33.957Z,100878.00
2023-03-02T15:10:15.628Z,100873.00
2023-03-02T15:12:52.467Z,100876.00
2023-03-02T15:15:27.709Z,100874.00
2023-03-02T15:18:01.665Z,100875.00
2023-03-02T15:20:42.376Z,100881.00
2023-03-02T15:23:16.091Z,100875.00
2023-03-02T15:25:49.790Z,100872.00
2023-03-02T15:28:25.059Z,100872.00
2023-03-02T15:30:58.721Z,100878.00
2023-03-02T15:33:32.192Z,100879.00
2023-03-02T15:36:08.726Z,100871.00
2023-03-02T15:38:43.380Z,100876.00
2023-03-02T15:41:17.068Z,100873.00
2023-03-02T15:43:55.939Z,100880.00
2023-03-02T15:46:30.578Z,100875.00
2023-03-02T15:49:03.932Z,100876.00
2023-03-02T15:51:39.194Z,100872.00
2023-03-02T15:54:13.260Z,100869.00
2023-03-02T15:56:51.941Z,100876.00
2023-03-02T15:59:31.167Z,100873.00
2023-03-02T16:02:05.530Z,100881.00
2023-03-02T16:04:39.133Z,100877.00
2023-03-02T16:07:15.992Z,100884.00
2023-03-02T16:09:50.330Z,100889.00
2023-03-02T16:12:25.671Z,100890.00
2023-03-02T16:15:00.731Z,100888.00
2023-03-02T16:17:35.069Z,100889.00
2023-03-02T16:20:11.241Z,100895.00
2023-03-02T16:22:46.533Z,100891.00
2023-03-02T16:25:20.636Z,100894.00
2023-03-02T16:27:55.176Z,100892.00
2023-03-02T16:30:29.117Z,100896.00
2023-03-02T16:33:06.149Z,100900.00
2023-03-02T16:35:40.106Z,100908.00
2023-03-02T16:38:16.011Z,100868.00
2023-03-02T16:40:52.630Z,100909.00
2023-03-02T16:43:26.871Z,100901.00
2023-03-02T16:46:02.991Z,100907.00
2023-03-02T16:48:36.780Z,100906.00
2023-03-02T16:51:10.423Z,100914.00
2023-03-02T16:53:46.037Z,100906.00
2023-03-02T16:56:19.630Z,100916.00
2023-03-02T16:58:54.189Z,100916.00
2023-03-02T17:01:30.091Z,100903.00
2023-03-02T17:04:05.844Z,100920.00
2023-03-02T17:06:41.732Z,100921.00
2023-03-02T17:09:20.296Z,100921.00
2023-03-02T17:11:53.884Z,100916.00
2023-03-02T17:14:29.134Z,100919.00
2023-03-02T17:17:02.983Z,100917.00
2023-03-02T17:19:36.636Z,100927.00
2023-03-02T17:22:10.627Z,100925.00
2023-03-02T17:24:46.035Z,100923.00
2023-03-02T17:27:25.437Z,100930.00
2023-03-02T17:29:59.849Z,100928.00
2023-03-02T17:32:33.861Z,100931.00
2023-03-02T17:35:11.012Z,100945.00
2023-03-02T17:37:45.205Z,100935.00
2023-03-02T17:40:22.194Z,100942.00
2023-03-02T17:42:57.766Z,100948.00
2023-03-02T17:45:31.797Z,100957.00
2023-03-02T17:48:06.574Z,100957.00
2023-03-02T17:50:40.548Z,100963.00
2023-03-02T17:53:14.391Z,100967.00
2023-03-02T17:55:49.632Z,100979.00
2023-03-02T17:58:25.253Z,100975.00
2023-03-02T18:01:00.742Z,100980.00
2023-03-02T18:03:34.813Z,100991.00
2023-03-02T18:06:09.088Z,100985.00
2023-03-02T18:08:43.028Z,100986.00
2023-03-02T18:11:19.840Z,101000.00
2023-03-02T18:13:55.594Z,101004.00
2023-03-02T18:16:31.031Z,101003.00
2023-03-02T18:19:04.966Z,101007.00
2023-03-02T18:21:42.107Z,100977.00
2023-03-02T18:24:16.337Z,101016.00
2023-03-02T18:26:52.125Z,101017.00
2023-03-02T18:29:26.897Z,101020.00
2023-03-02T18:32:02.477Z,101023.00
2023-03-02T18:34:36.310Z,101037.00
2023-03-02T18:37:10.895Z,101039.00
2023-03-02T18:39:45.044Z,101033.00
2023-03-02T18:42:21.029Z,101040.00
2023-03-02T18:44:56.032Z,101027.00
2023-03-02T18:47:30.784Z,101041.00
2023-03-02T18:50:05.372Z,101052.00
2023-03-02T18:52:39.296Z,101042.00
2023-03-02T18:55:14.462Z,101021.00
2023-03-02T18:57:49.551Z,101052.00
2023-03-02T19:00:27.978Z,101052.00
2023-03-02T19:03:01.811Z,101060.00
2023-03-02T19:05:36.479Z,101047.00
2023-03-02T19:08:10.978Z,101060.00
2023-03-02T19:10:44.782Z,101060.00
2023-03-02T19:13:21.958Z,101066.00
2023-03-02T19:15:57.066Z,101064.00
2023-03-02T19:18:32.129Z,101061.00
2023-03-02T19:21:08.015Z,101059.00
2023-03-02T19:23:42.294Z,101062.00
2023-03-02T19:26:20.963Z,101066.00
2023-03-02T19:28:56.699Z,101063.00
2023-03-02T19:31:32.904Z,101064.00
2023-03-02T19:34:07.127Z,101064.00
2023-03-02T19:36:41.223Z,101071.00
2023-03-02T19:39:15.334Z,101076.00
2023-03-02T19:41:49.280Z,101075.00
2023-03-02T19:44:25.720Z,101065.00
2023-03-02T19:46:59.826Z,101076.00
2023-03-02T19:49:33.704Z,101076.00
2023-03-02T19:52:07.339Z,101072.00
2023-03-02T19:54:43.633Z,101078.00
2023-03-02T19:57:17.324Z,101075.00
2023-03-02T19:59:52.733Z,101081.00
2023-03-02T20:02:27.302Z,101072.00
2023-03-02T20:05:00.903Z,101074.00
2023-03-02T20:07:34.846Z,101083.00
2023-03-02T20:10:11.841Z,101085.00
2023-03-02T20:12:48.675Z,101078.00
2023-03-02T20:15:24.004Z,101084.00
2023-03-02T20:18:02.859Z,101095.00
2023-03-02T20:20:37.387Z,101101.00
2023-03-02T20:23:11.861Z,101094.00
2023-03-02T20:25:48.249Z,101089.00
2023-03-02T20:28:25.358Z,101094.00
2023-03-02T20:31:08.999Z,101099.00
2023-03-02T20:33:47.635Z,101102.00
2023-03-02T20:36:27.327Z,101103.00
2023-03-02T20:39:07.115Z,101095.00
2023-03-02T20:41:41.339Z,101112.00
2023-03-02T20:44:15.043Z,101114.00
2023-03-02T20:46:54.250Z,101115.00
2023-03-02T20:49:31.175Z,101108.00
2023-03-02T20:52:06.553Z,101108.00
2023-03-02T20:54:43.278Z,101116.00
2023-03-02T20:57:19.568Z,101095.00
2023-03-02T20:59:53.240Z,101107.00
2023-03-02T21:02:28.763Z,101111.00
2023-03-02T21:05:02.833Z,101103.00
2023-03-02T21:07:37.425Z,101115.00
2023-03-02T21:10:16.692Z,101109.00
2023-03-02T21:12:51.558Z,101104.00
2023-03-02T21:15:27.500Z,101116.00
2023-03-02T21:18:03.178Z,101111.00
2023-03-02T21:20:39.103Z,101115.00
2023-03-02T21:23:13.043Z,101110.00
2023-03-02T21:25:47.732Z,101111.00
2023-03-02T21:28:21.651Z,101104.00
2023-03-02T21:30:55.727Z,101103.00
2023-03-02T21:33:31.683Z,101054.00
2023-03-02T21:36:06.427Z,101093.00
2023-03-02T21:38:40.012Z,101088.00
2023-03-02T21:41:15.335Z,101074.00
2023-03-02T21:43:49.501Z,101088.00
2023-03-02T21:46:24.964Z,101084.00
2023-03-02T21:49:01.401Z,101088.00
2023-03-02T21:51:35.651Z,101075.00
2023-03-02T21:54:09.230Z,101082.00
2023-03-02T21:56:43.102Z,101083.00
2023-03-02T21:59:17.104Z,101082.00
2023-03-02T22:01:50.912Z,101078.00
2023-03-02T22:04:27.065Z,101081.00
2023-03-02T22:07:00.951Z,101075.00
2023-03-02T22:09:34.745Z,101083.00
2023-03-02T22:12:14.401Z,101088.00
2023-03-02T22:14:48.362Z,101078.00
2023-03-02T22:17:24.914Z,101093.00
2023-03-02T22:20:01.070Z,101082.00
2023-03-02T22:22:35.533Z,101078.00
2023-03-02T22:25:18.137Z,101083.00
2023-03-02T22:27:52.815Z,101080.00
2023-03-02T22:30:26.974Z,101080.00
2023-03-02T22:33:01.677Z,101083.00
2023-03-02T22:35:36.825Z,101090.00
2023-03-02T22:38:20.981Z,101068.00
2023-03-02T22:40:56.627Z,101104.00
2023-03-02T22:43:34.184Z,101104.00
2023-03-02T22:46:15.904Z,101094.00
2023-03-02T22:48:52.242Z,101104.00
2023-03-02T22:51:32.406Z,101091.00
2023-03-02T22:54:23.802Z,101100.00
2023-03-02T22:56:57.403Z,101102.00
2023-03-02T22:59:39.222Z,101102.00
2023-03-02T23:02:22.564Z,101111.00
2023-03-02T23:04:56.399Z,101101.00
2023-03-02T23:07:31.588Z,101104.00
2023-03-02T23:10:06.396Z,101094.00
2023-03-02T23:12:40.256Z,101105.00
2023-03-02T23:15:21.364Z,101086.00
2023-03-02T23:17:57.844Z,101107.00
2023-03-02T23:20:35.004Z,101105.00
2023-03-02T23:23:10.456Z,101094.00
2023-03-02T23:25:44.185Z,101083.00
2023-03-02T23:28:18.835Z,101104.00
2023-03-02T23:30:53.074Z,101102.00
2023-03-02T23:33:26.621Z,101092.00
2023-03-02T23:36:01.011Z,101095.00
2023-03-02T23:38:36.458Z,101087.00
2023-03-02T23:41:11.539Z,101094.00
2023-03-02T23:43:45.565Z,101099.00
2023-03-02T23:46:20.314Z,101074.00
2023-03-02T23:48:56.249Z,101089.00
2023-03-02T23:51:30.136Z,101093.00
2023-03-02T23:54:07.058Z,101099.00
2023-03-02T23:56:41.783Z,101085.00
2023-03-02T23:59:15.502Z,101091.00
